PWSweather.com
Personal Weather Stations
Station Observations
PENICUIKWS
PenicuikGB

PenicuikGB

Lat: 55.830932, Lon: -3.224533000000065

Elevation: 166

Station Type: Fine Offset

http://weather.penicuik.org

High Low Average
Temperature 49.5°F9.7°C 21.7°F-5.7°C 35.1°F1.7°C
Dew Point 40.7°F4.8°C 17.7°F-7.9°C 30.7°F-0.7°C
Winds 9.8 mph 15.8 kmh Calm Calm 2.0 mph SSE3.2 kmh SSE
Wind Gusts 9.8 mph15.8 kmh -- 2.0 mph3.2 kmh
Humidity 93% 57% 84%
Pressure 29.59 in1002.0 mb 28.82 in976.0 mb -
Precipitation 0.22 in5.6 mm - -
Hour Temp Dew Point Humidity Winds Wind Gusts Pressure Precip Precip Rate Daily Precip Total
07:23 AM 32.5°F0.3°C 29.7°F-1.3°C 89% 0.7 mph WNW1.1 kmh WNW 0.7 mph1.1 kmh 29.23 in989.8 mb 0.04 in1.0 mm 0.10 in2.5 mm 0.07 in1.8 mm
07:24 AM 27.5°F-2.5°C 24.1°F-4.4°C 87% Calm Calm -- 29.26 in990.9 mb 0.00 in0.0 mm 0.00 in0.0 mm 0.04 in1.0 mm
07:25 AM 30.4°F-0.9°C 24.6°F-4.1°C 79% 3.1 mph N5.0 kmh N 3.1 mph5.0 kmh 29.44 in997.0 mb 0.00 in0.0 mm 0.00 in0.0 mm 0.04 in1.0 mm
07:26 AM 33.3°F0.7°C 27.8°F-2.3°C 80% 6.0 mph SSE9.7 kmh SSE 6.0 mph9.7 kmh 29.19 in988.5 mb 0.00 in0.0 mm 0.00 in0.0 mm 0.04 in1.0 mm
07:27 AM 39.4°F4.1°C 35.8°F2.1°C 87% 3.8 mph SW6.1 kmh SW 3.8 mph6.1 kmh 29.15 in987.1 mb 0.05 in1.3 mm 3.00 in76.2 mm 0.20 in5.1 mm
07:28 AM 39.4°F4.1°C 35.5°F1.9°C 86% 3.1 mph SE5.0 kmh SE 3.1 mph5.0 kmh 29.02 in982.7 mb 0.00 in0.0 mm 0.00 in0.0 mm 0.15 in3.8 mm
07:30 AM 39.2°F4.0°C 36.8°F2.7°C 91% 2.0 mph SW3.2 kmh SW 3.1 mph5.0 kmh 29.13 in986.5 mb 0.00 in0.0 mm 0.00 in0.0 mm 0.05 in1.3 mm
08:00 AM 39.4°F4.1°C 37.0°F2.8°C 91% 1.5 mph SW2.4 kmh SW 2.2 mph3.5 kmh 29.14 in986.8 mb 0.01 in0.3 mm 0.02 in0.5 mm 0.06 in1.5 mm
08:15 AM 39.2°F4.0°C 36.8°F2.7°C 91% 2.4 mph NW3.9 kmh NW 5.4 mph8.7 kmh 29.15 in987.1 mb 0.01 in0.3 mm 0.00 in0.0 mm 0.06 in1.5 mm
08:30 AM 39.0°F3.9°C 36.9°F2.7°C 92% 2.4 mph NNW3.9 kmh NNW 5.4 mph8.7 kmh 29.16 in987.5 mb 0.01 in0.3 mm 0.00 in0.0 mm 0.06 in1.5 mm
08:45 AM 38.8°F3.8°C 36.7°F2.6°C 92% 2.2 mph NW3.5 kmh NW 4.5 mph7.2 kmh 29.16 in987.5 mb 0.00 in0.0 mm 0.00 in0.0 mm 0.06 in1.5 mm
09:00 AM 38.3°F3.5°C 36.2°F2.3°C 92% 0.9 mph WNW1.4 kmh WNW 1.6 mph2.6 kmh 29.16 in987.5 mb 0.00 in0.0 mm 0.00 in0.0 mm 0.06 in1.5 mm
09:15 AM 39.4°F4.1°C 37.0°F2.8°C 91% 2.3 mph WSW3.7 kmh WSW 3.8 mph6.1 kmh 29.16 in987.5 mb 0.00 in0.0 mm 0.00 in0.0 mm 0.06 in1.5 mm
09:30 AM 39.4°F4.1°C 37.0°F2.8°C 91% 2.2 mph W3.5 kmh W 6.9 mph11.1 kmh 29.17 in987.8 mb 0.00 in0.0 mm 0.00 in0.0 mm 0.06 in1.5 mm
09:45 AM 39.4°F4.1°C 37.0°F2.8°C 91% 2.8 mph NNW4.5 kmh NNW 3.8 mph6.1 kmh 29.17 in987.8 mb 0.00 in0.0 mm 0.00 in0.0 mm 0.06 in1.5 mm
10:00 AM 39.4°F4.1°C 37.0°F2.8°C 91% 3.1 mph W5.0 kmh W 5.4 mph8.7 kmh 29.17 in987.8 mb 0.00 in0.0 mm 0.00 in0.0 mm 0.06 in1.5 mm
10:15 AM 40.5°F4.7°C 38.0°F3.3°C 91% 2.2 mph S3.5 kmh S 3.8 mph6.1 kmh 29.18 in988.1 mb 0.00 in0.0 mm 0.00 in0.0 mm 0.06 in1.5 mm
10:30 AM 44.1°F6.7°C 40.7°F4.8°C 88% 2.2 mph NNE3.5 kmh NNE 3.1 mph5.0 kmh 29.18 in988.1 mb 0.00 in0.0 mm 0.00 in0.0 mm 0.06 in1.5 mm
11:00 AM 46.9°F8.3°C 39.4°F4.1°C 75% 2.3 mph WNW3.7 kmh WNW 3.8 mph6.1 kmh 29.19 in988.5 mb 0.00 in0.0 mm 0.00 in0.0 mm 0.06 in1.5 mm
11:15 AM 46.8°F8.2°C 38.2°F3.4°C 72% 2.9 mph WSW4.7 kmh WSW 4.5 mph7.2 kmh 29.18 in988.1 mb 0.00 in0.0 mm 0.00 in0.0 mm 0.06 in1.5 mm
11:30 AM 47.1°F8.4°C 38.6°F3.7°C 72% 2.1 mph SSW3.4 kmh SSW 3.1 mph5.0 kmh 29.19 in988.5 mb 0.00 in0.0 mm 0.00 in0.0 mm 0.06 in1.5 mm
11:45 AM 48.9°F9.4°C 38.8°F3.8°C 68% 1.8 mph WSW2.9 kmh WSW 3.1 mph5.0 kmh 29.19 in988.5 mb 0.00 in0.0 mm 0.00 in0.0 mm 0.06 in1.5 mm
12:00 PM 49.5°F9.7°C 38.6°F3.7°C 66% 2.3 mph SW3.7 kmh SW 3.8 mph6.1 kmh 29.19 in988.5 mb 0.00 in0.0 mm 0.00 in0.0 mm 0.06 in1.5 mm
12:15 PM 47.7°F8.7°C 36.9°F2.7°C 66% 2.2 mph SW3.5 kmh SW 3.8 mph6.1 kmh 29.19 in988.5 mb 0.00 in0.0 mm 0.00 in0.0 mm 0.06 in1.5 mm
12:30 PM 45.1°F7.3°C 35.9°F2.2°C 70% 2.2 mph WNW3.5 kmh WNW 4.5 mph7.2 kmh 29.20 in988.8 mb 0.00 in0.0 mm 0.00 in0.0 mm 0.06 in1.5 mm
12:45 PM 43.9°F6.6°C 35.8°F2.1°C 73% 2.8 mph NW4.5 kmh NW 5.4 mph8.7 kmh 29.21 in989.2 mb 0.00 in0.0 mm 0.00 in0.0 mm 0.06 in1.5 mm
01:00 PM 43.2°F6.2°C 35.8°F2.1°C 75% 2.8 mph WNW4.5 kmh WNW 4.5 mph7.2 kmh 29.21 in989.2 mb 0.00 in0.0 mm 0.00 in0.0 mm 0.06 in1.5 mm
01:15 PM 42.6°F5.9°C 35.9°F2.2°C 77% 1.1 mph W1.8 kmh W 2.2 mph3.5 kmh 29.21 in989.2 mb 0.00 in0.0 mm 0.00 in0.0 mm 0.06 in1.5 mm
01:45 PM 43.9°F6.6°C 37.8°F3.2°C 79% 1.5 mph S2.4 kmh S 3.8 mph6.1 kmh 29.23 in989.8 mb 0.00 in0.0 mm 0.00 in0.0 mm 0.06 in1.5 mm
02:00 PM 43.5°F6.4°C 37.1°F2.8°C 78% 2.9 mph S4.7 kmh S 5.4 mph8.7 kmh 29.23 in989.8 mb 0.00 in0.0 mm 0.00 in0.0 mm 0.06 in1.5 mm
02:15 PM 43.2°F6.2°C 36.4°F2.4°C 77% 1.7 mph SSW2.7 kmh SSW 3.8 mph6.1 kmh 29.23 in989.8 mb 0.00 in0.0 mm 0.00 in0.0 mm 0.06 in1.5 mm
02:30 PM 43.0°F6.1°C 36.9°F2.7°C 79% 2.3 mph SSW3.7 kmh SSW 3.8 mph6.1 kmh 29.24 in990.2 mb 0.00 in0.0 mm 0.00 in0.0 mm 0.06 in1.5 mm
02:45 PM 42.3°F5.7°C 36.5°F2.5°C 80% 2.4 mph N3.9 kmh N 3.1 mph5.0 kmh 29.27 in991.2 mb 0.00 in0.0 mm 0.00 in0.0 mm 0.06 in1.5 mm
03:00 PM 40.3°F4.6°C 35.2°F1.8°C 82% 1.8 mph NNE2.9 kmh NNE 3.1 mph5.0 kmh 29.28 in991.5 mb 0.02 in0.5 mm 0.03 in0.8 mm 0.08 in2.0 mm
03:15 PM 38.8°F3.8°C 34.4°F1.3°C 84% 1.8 mph SSW2.9 kmh SSW 3.1 mph5.0 kmh 29.28 in991.5 mb 0.05 in1.3 mm 0.12 in3.0 mm 0.11 in2.8 mm
03:30 PM 38.1°F3.4°C 34.3°F1.3°C 86% 1.7 mph SSW2.7 kmh SSW 3.1 mph5.0 kmh 29.29 in991.9 mb 0.05 in1.3 mm 0.00 in0.0 mm 0.11 in2.8 mm
03:45 PM 37.6°F3.1°C 33.8°F1.0°C 86% 1.7 mph SW2.7 kmh SW 3.1 mph5.0 kmh 29.31 in992.6 mb 0.05 in1.3 mm 0.00 in0.0 mm 0.11 in2.8 mm
04:00 PM 37.8°F3.2°C 34.5°F1.4°C 88% 1.8 mph NE2.9 kmh NE 3.1 mph5.0 kmh 29.32 in992.9 mb 0.02 in0.5 mm 0.00 in0.0 mm 0.11 in2.8 mm
04:15 PM 37.4°F3.0°C 34.2°F1.2°C 88% 1.6 mph NE2.6 kmh NE 3.1 mph5.0 kmh 29.34 in993.6 mb 0.00 in0.0 mm 0.00 in0.0 mm 0.11 in2.8 mm
04:30 PM 36.9°F2.7°C 32.8°F0.4°C 85% 1.0 mph NW1.6 kmh NW 2.2 mph3.5 kmh 29.35 in993.9 mb 0.00 in0.0 mm 0.00 in0.0 mm 0.11 in2.8 mm
04:45 PM 36.5°F2.5°C 32.4°F0.2°C 85% 0.9 mph SE1.4 kmh SE 1.6 mph2.6 kmh 29.37 in994.6 mb 0.00 in0.0 mm 0.00 in0.0 mm 0.11 in2.8 mm
05:00 PM 36.7°F2.6°C 32.6°F0.3°C 85% 1.9 mph SSE3.1 kmh SSE 3.1 mph5.0 kmh 29.39 in995.3 mb 0.00 in0.0 mm 0.00 in0.0 mm 0.11 in2.8 mm
05:30 PM 36.1°F2.3°C 32.4°F0.2°C 86% 2.0 mph SSW3.2 kmh SSW 3.8 mph6.1 kmh 29.40 in995.6 mb 0.00 in0.0 mm 0.00 in0.0 mm 0.11 in2.8 mm
05:45 PM 35.8°F2.1°C 32.0°F0.0°C 86% 1.2 mph ESE1.9 kmh ESE 2.2 mph3.5 kmh 29.42 in996.3 mb 0.00 in0.0 mm 0.00 in0.0 mm 0.11 in2.8 mm
06:00 PM 35.8°F2.1°C 32.0°F0.0°C 86% 1.5 mph SW2.4 kmh SW 3.8 mph6.1 kmh 29.43 in996.6 mb 0.00 in0.0 mm 0.00 in0.0 mm 0.11 in2.8 mm
06:15 PM 35.8°F2.1°C 32.0°F0.0°C 86% 1.8 mph SW2.9 kmh SW 2.2 mph3.5 kmh 29.44 in997.0 mb 0.00 in0.0 mm 0.00 in0.0 mm 0.11 in2.8 mm
06:30 PM 35.2°F1.8°C 31.8°F-0.1°C 87% 1.4 mph SSW2.3 kmh SSW 3.1 mph5.0 kmh 29.45 in997.3 mb 0.00 in0.0 mm 0.00 in0.0 mm 0.11 in2.8 mm
06:45 PM 35.1°F1.7°C 31.6°F-0.2°C 87% 1.8 mph SSW2.9 kmh SSW 3.1 mph5.0 kmh 29.46 in997.6 mb 0.00 in0.0 mm 0.00 in0.0 mm 0.11 in2.8 mm
07:00 PM 35.6°F2.0°C 32.1°F0.1°C 87% 2.0 mph S3.2 kmh S 3.1 mph5.0 kmh 29.46 in997.6 mb 0.00 in0.0 mm 0.00 in0.0 mm 0.11 in2.8 mm
07:15 PM 36.1°F2.3°C 32.7°F0.4°C 87% 3.4 mph S5.5 kmh S 4.5 mph7.2 kmh 29.48 in998.3 mb 0.00 in0.0 mm 0.00 in0.0 mm 0.11 in2.8 mm
07:30 PM 35.8°F2.1°C 32.0°F0.0°C 86% 2.9 mph SSW4.7 kmh SSW 4.5 mph7.2 kmh 29.49 in998.6 mb 0.00 in0.0 mm 0.00 in0.0 mm 0.11 in2.8 mm
07:45 PM 36.7°F2.6°C 32.9°F0.5°C 86% 3.9 mph S6.3 kmh S 5.4 mph8.7 kmh 29.49 in998.6 mb 0.00 in0.0 mm 0.00 in0.0 mm 0.11 in2.8 mm
08:00 PM 37.8°F3.2°C 35.4°F1.9°C 91% 3.9 mph SW6.3 kmh SW 7.6 mph12.2 kmh 29.49 in998.6 mb 0.00 in0.0 mm 0.00 in0.0 mm 0.11 in2.8 mm
08:30 PM 37.9°F3.3°C 35.0°F1.7°C 89% 2.7 mph E4.3 kmh E 3.8 mph6.1 kmh 29.51 in999.3 mb 0.00 in0.0 mm 0.00 in0.0 mm 0.11 in2.8 mm
08:45 PM 38.3°F3.5°C 35.4°F1.9°C 89% 3.6 mph WSW5.8 kmh WSW 5.4 mph8.7 kmh 29.52 in999.7 mb 0.00 in0.0 mm 0.00 in0.0 mm 0.11 in2.8 mm
09:00 PM 38.1°F3.4°C 34.9°F1.6°C 88% 2.1 mph S3.4 kmh S 3.1 mph5.0 kmh 29.52 in999.7 mb 0.00 in0.0 mm 0.00 in0.0 mm 0.11 in2.8 mm
09:15 PM 38.1°F3.4°C 34.9°F1.6°C 88% 2.6 mph WNW4.2 kmh WNW 5.4 mph8.7 kmh 29.53 in1000.0 mb 0.00 in0.0 mm 0.00 in0.0 mm 0.11 in2.8 mm
09:30 PM 38.7°F3.7°C 35.1°F1.7°C 87% 4.2 mph SW6.8 kmh SW 6.0 mph9.7 kmh 29.54 in1000.3 mb 0.00 in0.0 mm 0.00 in0.0 mm 0.11 in2.8 mm
09:45 PM 38.7°F3.7°C 34.8°F1.6°C 86% 3.1 mph SE5.0 kmh SE 6.0 mph9.7 kmh 29.55 in1000.7 mb 0.00 in0.0 mm 0.00 in0.0 mm 0.11 in2.8 mm
10:00 PM 38.3°F3.5°C 34.5°F1.4°C 86% 1.8 mph SSW2.9 kmh SSW 3.1 mph5.0 kmh 29.55 in1000.7 mb 0.00 in0.0 mm 0.00 in0.0 mm 0.11 in2.8 mm
10:15 PM 38.3°F3.5°C 34.5°F1.4°C 86% 3.9 mph SW6.3 kmh SW 5.4 mph8.7 kmh 29.56 in1001.0 mb 0.00 in0.0 mm 0.00 in0.0 mm 0.11 in2.8 mm
10:45 PM 37.8°F3.2°C 34.0°F1.1°C 86% 3.2 mph SW5.1 kmh SW 5.4 mph8.7 kmh 29.57 in1001.4 mb 0.00 in0.0 mm 0.00 in0.0 mm 0.11 in2.8 mm
11:00 PM 38.7°F3.7°C 35.1°F1.7°C 87% 3.5 mph SSW5.6 kmh SSW 6.9 mph11.1 kmh 29.57 in1001.4 mb 0.00 in0.0 mm 0.00 in0.0 mm 0.11 in2.8 mm
11:15 PM 38.8°F3.8°C 35.0°F1.7°C 86% 2.8 mph E4.5 kmh E 5.4 mph8.7 kmh 29.57 in1001.4 mb 0.00 in0.0 mm 0.00 in0.0 mm 0.11 in2.8 mm
11:30 PM 39.0°F3.9°C 34.9°F1.6°C 85% 2.8 mph SSW4.5 kmh SSW 4.5 mph7.2 kmh 29.59 in1002.0 mb 0.00 in0.0 mm 0.00 in0.0 mm 0.11 in2.8 mm
11:45 PM 39.4°F4.1°C 35.0°F1.7°C 84% 3.8 mph SSE6.1 kmh SSE 5.4 mph8.7 kmh 29.59 in1002.0 mb 0.00 in0.0 mm 0.00 in0.0 mm 0.11 in2.8 mm